Time;durP1;ratioP1;P1;durP2;ratioP2;P2;SDS_P1;SDS_P2;PMS_P1;PMS_P2;Temp;Humidity;BMP_temperature;BMP_pressure;BME280_temperature;BME280_humidity;BME280_pressure;Samples;Min_cycle;Max_cycle;Signal;HPM_P1;HPM_P2
2022/05/22 00:00:43;;;;;;;6.90;3.53;;;13.10;99.90;;;;;;4989473;28;20207;-72
2022/05/22 00:03:10;;;;;;;6.70;3.77;;;13.20;99.90;;;;;;4989065;28;20233;-73
2022/05/22 00:05:37;;;;;;;7.13;3.80;;;13.20;99.90;;;;;;4988308;28;20315;-71
2022/05/22 00:08:04;;;;;;;7.13;4.03;;;13.20;99.90;;;;;;4984094;28;20199;-74
2022/05/22 00:10:31;;;;;;;7.73;4.00;;;13.20;99.90;;;;;;4990077;28;20671;-72
2022/05/22 00:12:57;;;;;;;5.80;3.93;;;13.10;99.90;;;;;;4990959;28;20215;-77
2022/05/22 00:15:24;;;;;;;8.40;3.87;;;13.20;99.90;;;;;;4987880;28;20197;-77
2022/05/22 00:17:51;;;;;;;6.77;3.83;;;13.20;99.90;;;;;;4988599;28;20225;-73
2022/05/22 00:20:18;;;;;;;5.33;3.90;;;13.00;99.90;;;;;;5005527;28;20207;-78
2022/05/22 00:22:44;;;;;;;5.73;3.70;;;12.80;99.90;;;;;;4998944;28;20202;-80
2022/05/22 00:25:11;;;;;;;6.20;3.97;;;12.70;99.90;;;;;;5001391;28;20228;-77
2022/05/22 00:27:40;;;;;;;8.57;4.97;;;12.70;99.90;;;;;;5005450;28;20225;-77
2022/05/22 00:30:09;;;;;;;10.03;4.67;;;12.80;99.90;;;;;;5001863;28;20204;-73
2022/05/22 00:32:36;;;;;;;9.20;4.53;;;12.90;99.90;;;;;;4988965;28;20285;-77
2022/05/22 00:35:04;;;;;;;7.60;4.27;;;12.90;99.90;;;;;;4990198;28;20196;-73
2022/05/22 00:37:31;;;;;;;7.20;4.50;;;12.80;99.90;;;;;;4986404;28;20219;-74
2022/05/22 00:39:59;;;;;;;9.33;4.40;;;12.60;99.90;;;;;;4987280;28;20559;-74
2022/05/22 00:42:26;;;;;;;8.63;4.57;;;12.70;99.90;;;;;;4981681;28;20197;-74
2022/05/22 00:44:53;;;;;;;5.80;3.83;;;12.60;99.90;;;;;;4990749;28;20196;-73
2022/05/22 00:47:21;;;;;;;8.87;4.40;;;12.60;99.90;;;;;;4990500;28;20252;-74
2022/05/22 00:49:49;;;;;;;7.53;3.80;;;12.60;99.90;;;;;;4986321;28;20280;-73
2022/05/22 00:52:26;;;;;;;6.13;3.80;;;12.40;99.90;;;;;;4990021;28;20571;-74
2022/05/22 00:54:58;;;;;;;5.97;3.93;;;12.30;99.90;;;;;;4989644;28;20197;-73
2022/05/22 00:57:30;;;;;;;4.83;4.07;;;12.30;99.90;;;;;;4989977;28;20223;-73
2022/05/22 01:00:15;;;;;;;7.23;4.30;;;12.20;99.90;;;;;;4991550;28;20209;-76
2022/05/22 01:05:29;;;;;;;7.77;4.43;;;12.30;99.90;;;;;;4985863;28;20684;-77
2022/05/22 01:08:00;;;;;;;8.30;3.93;;;12.40;99.90;;;;;;4984810;28;20240;-74
2022/05/22 01:10:47;;;;;;;5.23;3.93;;;12.50;99.90;;;;;;4986119;28;20195;-74
2022/05/22 01:13:22;;;;;;;5.77;3.40;;;12.50;99.90;;;;;;4989815;28;20195;-74
2022/05/22 01:15:49;;;;;;;8.60;4.13;;;12.40;99.90;;;;;;4992356;28;20219;-74
2022/05/22 01:18:16;;;;;;;6.53;3.30;;;12.30;99.90;;;;;;4983724;28;20205;-74
2022/05/22 01:20:48;;;;;;;6.33;4.00;;;12.30;99.90;;;;;;4986436;28;20200;-74
2022/05/22 01:23:16;;;;;;;7.43;3.07;;;12.10;99.90;;;;;;4988716;28;20203;-73
2022/05/22 01:25:44;;;;;;;5.97;4.30;;;12.10;99.90;;;;;;4986389;28;20232;-74
2022/05/22 01:28:14;;;;;;;8.60;3.70;;;12.00;99.90;;;;;;4991611;28;20228;-74
2022/05/22 01:30:41;;;;;;;5.40;3.73;;;11.90;99.90;;;;;;4991913;28;20251;-74
2022/05/22 01:33:08;;;;;;;7.00;3.93;;;12.00;99.90;;;;;;4991273;28;20196;-77
2022/05/22 01:35:35;;;;;;;6.33;3.60;;;12.20;99.90;;;;;;4982497;28;20200;-76
2022/05/22 01:38:04;;;;;;;6.57;4.00;;;12.10;99.90;;;;;;4985896;28;20207;-74
2022/05/22 01:40:32;;;;;;;9.37;4.07;;;12.30;99.90;;;;;;4990671;28;20199;-77
2022/05/22 01:42:59;;;;;;;7.13;3.47;;;12.50;99.90;;;;;;4980167;28;20201;-73
2022/05/22 01:45:26;;;;;;;7.50;3.80;;;12.60;99.90;;;;;;4988010;28;20228;-74
2022/05/22 01:47:53;;;;;;;8.33;3.30;;;12.70;99.90;;;;;;4984812;28;20676;-73
2022/05/22 01:50:21;;;;;;;8.87;3.60;;;12.80;99.90;;;;;;4989997;28;20242;-75
2022/05/22 01:52:48;;;;;;;5.07;3.30;;;12.90;99.90;;;;;;4982773;28;20594;-75
2022/05/22 01:55:15;;;;;;;6.23;3.37;;;12.80;99.90;;;;;;4989868;28;20246;-75
2022/05/22 01:57:42;;;;;;;7.40;3.37;;;12.80;99.90;;;;;;4986667;28;20725;-73
2022/05/22 02:00:13;;;;;;;6.10;3.23;;;12.80;99.90;;;;;;4985562;28;20743;-75
2022/05/22 02:02:40;;;;;;;6.47;3.10;;;12.90;99.90;;;;;;4984169;28;20627;-74
2022/05/22 02:05:08;;;;;;;6.30;3.40;;;12.80;99.90;;;;;;4987363;28;20205;-74
2022/05/22 02:10:22;;;;;;;6.17;3.10;;;12.60;99.90;;;;;;4985107;28;20315;-74
2022/05/22 02:12:48;;;;;;;5.80;3.27;;;12.60;99.90;;;;;;4988543;28;20258;-77
2022/05/22 02:15:15;;;;;;;5.67;3.40;;;12.60;99.90;;;;;;4985562;28;20190;-75
2022/05/22 02:17:42;;;;;;;6.80;2.93;;;12.80;99.90;;;;;;4986774;28;20228;-74
2022/05/22 02:20:09;;;;;;;5.57;3.40;;;12.70;99.90;;;;;;4980817;28;20212;-72
2022/05/22 02:22:44;;;;;;;7.67;3.30;;;12.90;99.90;;;;;;4989275;28;20615;-76
2022/05/22 02:25:13;;;;;;;4.90;2.80;;;12.70;99.90;;;;;;4987809;28;20193;-74
2022/05/22 02:27:40;;;;;;;5.00;3.10;;;12.50;99.90;;;;;;4985967;28;20221;-75
2022/05/22 02:30:09;;;;;;;6.27;2.87;;;12.40;99.90;;;;;;4982596;28;20204;-77
2022/05/22 02:32:38;;;;;;;5.23;2.90;;;12.20;99.90;;;;;;4987754;28;20195;-75
2022/05/22 02:35:07;;;;;;;4.93;2.70;;;12.10;99.90;;;;;;4991838;28;20700;-78
2022/05/22 02:37:41;;;;;;;4.00;2.83;;;11.90;99.90;;;;;;4987285;28;20214;-75
2022/05/22 02:40:09;;;;;;;8.23;3.20;;;11.80;99.90;;;;;;4989339;28;20205;-76
2022/05/22 02:42:40;;;;;;;6.67;3.10;;;11.80;99.90;;;;;;4989131;28;20251;-76
2022/05/22 02:45:08;;;;;;;6.53;3.00;;;11.80;99.90;;;;;;4990538;28;20209;-74
2022/05/22 02:47:35;;;;;;;4.80;2.87;;;11.70;99.90;;;;;;4989213;28;20248;-73
2022/05/22 02:50:04;;;;;;;5.27;2.87;;;11.70;99.90;;;;;;4990569;28;20266;-74
2022/05/22 02:52:31;;;;;;;7.13;3.20;;;11.60;99.90;;;;;;4992994;28;20614;-74
2022/05/22 02:54:58;;;;;;;6.30;2.90;;;11.70;99.90;;;;;;4990609;28;20203;-77
2022/05/22 02:57:25;;;;;;;7.70;3.30;;;11.90;99.90;;;;;;4984999;28;20246;-73
2022/05/22 02:59:53;;;;;;;4.70;2.67;;;12.00;99.90;;;;;;4985302;28;20216;-73
2022/05/22 03:02:20;;;;;;;3.80;2.77;;;12.00;99.90;;;;;;4985467;28;20199;-73
2022/05/22 03:04:49;;;;;;;4.10;2.90;;;11.80;99.90;;;;;;4992709;28;20207;-73
2022/05/22 03:07:18;;;;;;;6.40;3.30;;;11.70;99.90;;;;;;4984175;28;20227;-77
2022/05/22 03:09:46;;;;;;;6.10;3.10;;;11.60;99.90;;;;;;4990716;28;20200;-74
2022/05/22 03:12:19;;;;;;;9.13;3.00;;;11.50;99.90;;;;;;4993264;28;20839;-75
2022/05/22 03:14:49;;;;;;;8.43;3.87;;;11.40;99.90;;;;;;4987921;28;20625;-78
2022/05/22 03:17:16;;;;;;;4.43;3.40;;;11.60;99.90;;;;;;4991457;28;20638;-75
2022/05/22 03:19:43;;;;;;;5.50;3.23;;;11.70;99.90;;;;;;4992245;28;20258;-74
2022/05/22 03:22:11;;;;;;;4.37;3.50;;;11.60;99.90;;;;;;4988452;28;20247;-74
2022/05/22 03:24:39;;;;;;;5.73;3.00;;;11.50;99.90;;;;;;4984405;28;20233;-75
2022/05/22 03:27:10;;;;;;;6.57;3.33;;;11.30;99.90;;;;;;4988427;28;20228;-75
2022/05/22 03:29:41;;;;;;;4.77;3.37;;;11.20;99.90;;;;;;4991653;28;20194;-75
2022/05/22 03:32:08;;;;;;;6.87;3.43;;;11.10;99.90;;;;;;4985185;28;20196;-75
2022/05/22 03:34:35;;;;;;;5.87;3.73;;;11.20;99.90;;;;;;4990310;28;20204;-78
2022/05/22 03:37:02;;;;;;;7.60;3.50;;;11.20;99.90;;;;;;4987350;28;20222;-74
2022/05/22 03:39:29;;;;;;;6.90;3.93;;;11.20;99.90;;;;;;4991317;28;20702;-76
2022/05/22 03:42:01;;;;;;;4.23;3.00;;;11.30;99.90;;;;;;4984702;28;20198;-75
2022/05/22 03:44:28;;;;;;;7.10;3.90;;;11.50;99.90;;;;;;4990825;28;20205;-74
2022/05/22 03:46:55;;;;;;;5.27;3.50;;;11.50;99.90;;;;;;4991688;28;20649;-76
2022/05/22 03:49:22;;;;;;;7.07;3.40;;;11.40;99.90;;;;;;4988941;28;20265;-74
2022/05/22 03:51:48;;;;;;;9.47;3.77;;;11.30;99.90;;;;;;4990251;28;20267;-75
2022/05/22 03:54:15;;;;;;;5.83;3.50;;;11.30;99.90;;;;;;4991026;28;20608;-74
2022/05/22 03:56:42;;;;;;;5.87;3.60;;;11.40;99.90;;;;;;4991911;28;20221;-74
2022/05/22 03:59:12;;;;;;;4.63;3.20;;;11.50;99.90;;;;;;4989527;28;20233;-78
2022/05/22 04:01:38;;;;;;;4.33;3.33;;;11.60;99.90;;;;;;4989681;28;20199;-74
2022/05/22 04:04:05;;;;;;;6.70;3.23;;;11.60;99.90;;;;;;4991473;28;20200;-74
2022/05/22 04:06:32;;;;;;;4.80;3.40;;;11.60;99.90;;;;;;4986533;28;20387;-75
2022/05/22 04:08:58;;;;;;;7.23;3.73;;;11.40;99.90;;;;;;4991695;28;20206;-75
2022/05/22 04:11:25;;;;;;;6.57;3.20;;;11.50;99.90;;;;;;4986381;28;20619;-72
2022/05/22 04:13:52;;;;;;;6.30;3.20;;;11.60;99.90;;;;;;4987681;28;20667;-73
2022/05/22 04:16:18;;;;;;;3.67;2.90;;;11.50;99.90;;;;;;4991156;28;20221;-76
2022/05/22 04:18:45;;;;;;;7.30;3.60;;;11.50;99.90;;;;;;4991350;28;20212;-75
2022/05/22 04:21:13;;;;;;;4.57;3.40;;;11.60;99.90;;;;;;4988156;28;20205;-75
2022/05/22 04:26:30;;;;;;;7.07;3.63;;;11.70;99.90;;;;;;4989664;28;20230;-74
2022/05/22 04:28:57;;;;;;;7.67;3.40;;;11.70;99.90;;;;;;4985368;28;20618;-73
2022/05/22 04:31:23;;;;;;;5.87;3.40;;;11.80;99.90;;;;;;4989730;28;20729;-75
2022/05/22 04:33:50;;;;;;;3.07;2.60;;;11.90;99.90;;;;;;4987212;28;20199;-73
2022/05/22 04:36:17;;;;;;;4.83;3.57;;;11.90;99.90;;;;;;4991065;28;20213;-75
2022/05/22 04:38:43;;;;;;;12.43;3.50;;;12.00;99.90;;;;;;4989899;28;20404;-74
2022/05/22 04:41:10;;;;;;;6.20;3.07;;;12.00;99.90;;;;;;4990273;28;20207;-74
2022/05/22 04:43:37;;;;;;;7.37;3.40;;;12.10;99.90;;;;;;4985303;28;20199;-75
2022/05/22 04:46:07;;;;;;;6.20;3.30;;;12.20;99.90;;;;;;4986938;28;20229;-75
2022/05/22 04:48:35;;;;;;;6.67;2.90;;;12.30;99.90;;;;;;4988382;28;20202;-73
2022/05/22 04:51:02;;;;;;;5.50;3.07;;;12.30;99.90;;;;;;4983726;28;20200;-75
2022/05/22 04:53:29;;;;;;;5.10;3.20;;;12.50;99.90;;;;;;4990078;28;20200;-73
2022/05/22 04:55:57;;;;;;;6.77;3.30;;;12.60;99.90;;;;;;4989078;28;20220;-73
2022/05/22 04:58:24;;;;;;;8.97;3.60;;;12.60;99.90;;;;;;4988496;28;20200;-77
2022/05/22 05:00:50;;;;;;;6.13;3.43;;;12.70;99.90;;;;;;4985985;28;20619;-72
2022/05/22 05:03:18;;;;;;;5.87;3.20;;;12.80;99.90;;;;;;4990251;28;20201;-74
2022/05/22 05:05:56;;;;;;;4.43;3.40;;;12.90;99.90;;;;;;4988794;28;20203;-74
2022/05/22 05:08:23;;;;;;;8.00;3.50;;;13.00;99.90;;;;;;4983208;28;20220;-74
2022/05/22 05:10:51;;;;;;;3.90;3.07;;;13.10;99.90;;;;;;4988093;28;20200;-76
2022/05/22 05:13:19;;;;;;;4.87;3.33;;;13.00;99.90;;;;;;4988576;28;20680;-74
2022/05/22 05:15:56;;;;;;;7.43;3.40;;;13.00;99.90;;;;;;4987198;28;20196;-74
2022/05/22 05:18:23;;;;;;;4.47;3.57;;;13.00;99.90;;;;;;4979954;28;20615;-73
2022/05/22 05:20:51;;;;;;;5.00;3.50;;;13.00;99.90;;;;;;4982939;28;20205;-74
2022/05/22 05:23:17;;;;;;;4.83;2.93;;;13.20;99.90;;;;;;4987062;28;20256;-73
2022/05/22 05:25:44;;;;;;;5.77;3.20;;;13.40;99.90;;;;;;4987801;28;20684;-73
2022/05/22 05:28:10;;;;;;;4.57;2.83;;;13.50;99.90;;;;;;4986323;28;20218;-74
2022/05/22 05:30:37;;;;;;;3.83;2.60;;;13.50;99.90;;;;;;4990977;28;20198;-74
2022/05/22 05:33:04;;;;;;;7.47;3.03;;;13.50;99.90;;;;;;4991936;28;20652;-74
2022/05/22 05:35:31;;;;;;;5.30;2.90;;;13.50;99.90;;;;;;4991722;28;20200;-74
2022/05/22 05:37:58;;;;;;;3.57;2.30;;;13.60;99.90;;;;;;4990489;28;20206;-70
2022/05/22 05:40:24;;;;;;;4.93;2.70;;;13.80;99.90;;;;;;4990643;28;20684;-75
2022/05/22 05:42:52;;;;;;;5.90;2.93;;;14.00;99.90;;;;;;4990077;28;20207;-74
2022/05/22 05:45:18;;;;;;;5.47;2.87;;;14.10;99.90;;;;;;4987258;28;20196;-73
2022/05/22 05:47:47;;;;;;;4.63;2.90;;;14.20;99.90;;;;;;4986861;28;20723;-73
2022/05/22 05:50:21;;;;;;;5.33;2.73;;;14.40;99.90;;;;;;4985073;28;20260;-73
2022/05/22 05:52:49;;;;;;;4.33;2.63;;;14.70;99.90;;;;;;4989854;28;20192;-73
2022/05/22 05:55:17;;;;;;;7.63;2.70;;;14.90;99.90;;;;;;4987895;28;20667;-73
2022/05/22 05:58:04;;;;;;;5.33;2.67;;;15.00;99.90;;;;;;4987573;28;20200;-73
2022/05/22 06:00:51;;;;;;;11.10;3.10;;;15.10;99.90;;;;;;4989839;28;20204;-72
2022/05/22 06:03:17;;;;;;;5.40;2.50;;;15.10;99.90;;;;;;4982081;28;20201;-73
2022/05/22 06:05:45;;;;;;;6.33;2.97;;;15.10;99.90;;;;;;4982902;28;20259;-72
2022/05/22 06:08:12;;;;;;;5.00;3.00;;;15.20;99.90;;;;;;4985769;28;20221;-73
2022/05/22 06:10:39;;;;;;;5.17;3.00;;;15.40;99.90;;;;;;4988975;28;20689;-75
2022/05/22 06:13:08;;;;;;;5.07;3.10;;;15.60;99.90;;;;;;4992067;28;20259;-74
2022/05/22 06:15:34;;;;;;;4.80;3.10;;;15.70;99.90;;;;;;4990900;28;20189;-74
2022/05/22 06:18:01;;;;;;;5.87;3.27;;;15.70;99.90;;;;;;4990832;28;20232;-71
2022/05/22 06:20:29;;;;;;;6.13;2.83;;;15.70;99.90;;;;;;4989851;28;20201;-72
2022/05/22 06:22:55;;;;;;;5.47;2.73;;;15.80;99.90;;;;;;4984216;28;20240;-76
2022/05/22 06:25:22;;;;;;;4.70;2.53;;;15.90;99.90;;;;;;4990699;28;20197;-72
2022/05/22 06:27:49;;;;;;;3.90;2.70;;;16.10;99.90;;;;;;4987846;28;20484;-74
2022/05/22 06:30:18;;;;;;;5.17;2.93;;;16.20;99.90;;;;;;4987462;28;20193;-74
2022/05/22 06:32:45;;;;;;;7.80;2.80;;;16.30;99.90;;;;;;4987451;28;20209;-73
2022/05/22 06:35:13;;;;;;;5.53;2.97;;;16.40;99.90;;;;;;4988648;28;20249;-75
2022/05/22 06:37:41;;;;;;;5.00;3.07;;;16.50;99.90;;;;;;4989121;28;20221;-76
2022/05/22 06:40:09;;;;;;;7.17;3.40;;;16.60;99.90;;;;;;4986976;28;20205;-73
2022/05/22 06:42:44;;;;;;;7.67;3.33;;;16.70;99.90;;;;;;4988294;28;20205;-75
2022/05/22 06:45:14;;;;;;;4.60;3.10;;;16.70;99.90;;;;;;4992710;28;20227;-74
2022/05/22 06:47:43;;;;;;;7.33;3.60;;;16.80;99.90;;;;;;4989854;28;20225;-73
2022/05/22 06:50:17;;;;;;;7.53;3.57;;;16.90;99.90;;;;;;4991026;28;20220;-72
2022/05/22 06:52:45;;;;;;;6.97;3.53;;;16.90;99.90;;;;;;4993616;28;20221;-73
2022/05/22 06:55:14;;;;;;;9.30;3.80;;;17.30;99.90;;;;;;4993386;28;20612;-73
2022/05/22 06:57:41;;;;;;;4.93;3.43;;;17.80;99.90;;;;;;4994018;28;20224;-74
2022/05/22 07:00:12;;;;;;;7.30;3.00;;;18.50;99.90;;;;;;4995302;28;20201;-74
2022/05/22 07:02:39;;;;;;;7.03;3.37;;;19.50;99.90;;;;;;4989576;28;20197;-74
2022/05/22 07:05:07;;;;;;;6.70;3.57;;;20.40;99.90;;;;;;4991602;28;20717;-74
2022/05/22 07:07:34;;;;;;;7.00;3.30;;;21.10;99.90;;;;;;4996474;28;20267;-75
2022/05/22 07:10:01;;;;;;;6.90;3.88;;;21.50;99.90;;;;;;4987711;28;20204;-75
2022/05/22 07:12:27;;;;;;;7.18;3.38;;;21.70;99.90;;;;;;4982026;28;20201;-75
2022/05/22 07:14:56;;;;;;;6.90;3.33;;;22.10;99.90;;;;;;4977308;28;20215;-75
2022/05/22 07:17:24;;;;;;;6.85;3.20;;;22.60;99.90;;;;;;4985604;28;20235;-72
2022/05/22 07:19:53;;;;;;;4.40;2.30;;;23.20;99.90;;;;;;4985491;28;20283;-73
2022/05/22 07:22:20;;;;;;;4.88;2.00;;;23.50;99.90;;;;;;4988686;28;20477;-75
2022/05/22 07:24:47;;;;;;;4.15;1.90;;;23.60;99.90;;;;;;4990055;28;20201;-72
2022/05/22 07:27:14;;;;;;;5.88;2.65;;;23.70;99.90;;;;;;4986953;28;20229;-75
2022/05/22 07:29:41;;;;;;;6.53;2.30;;;23.30;99.90;;;;;;4987582;28;20200;-73
2022/05/22 07:32:13;;;;;;;4.90;2.25;;;23.10;99.90;;;;;;4988162;28;20193;-73
2022/05/22 07:34:42;;;;;;;3.90;1.80;;;23.20;99.90;;;;;;4984207;28;20308;-75
2022/05/22 07:37:10;;;;;;;5.47;2.20;;;23.40;99.90;;;;;;4988742;28;20410;-71
2022/05/22 07:39:37;;;;;;;5.75;1.90;;;23.20;99.90;;;;;;4982625;28;20252;-72
2022/05/22 07:42:05;;;;;;;3.95;2.00;;;23.10;99.90;;;;;;4983722;28;20197;-72
2022/05/22 07:44:32;;;;;;;3.10;2.00;;;23.10;99.90;;;;;;4987234;28;20201;-72
2022/05/22 07:46:59;;;;;;;4.20;2.10;;;23.30;99.90;;;;;;4981495;28;20220;-72
2022/05/22 07:52:10;;;;;;;3.58;2.15;;;22.30;99.90;;;;;;4982793;28;20209;-74
2022/05/22 07:54:53;;;;;;;4.22;1.90;;;22.30;99.90;;;;;;4985196;28;20692;-73
2022/05/22 07:57:19;;;;;;;3.35;2.10;;;22.20;99.90;;;;;;4985030;28;20239;-71
2022/05/22 07:59:46;;;;;;;4.53;1.90;;;22.30;99.90;;;;;;4988551;28;20193;-72
2022/05/22 08:02:13;;;;;;;3.50;2.20;;;22.40;99.90;;;;;;4986324;28;20223;-74
2022/05/22 08:04:41;;;;;;;2.55;1.90;;;22.30;99.90;;;;;;4990487;28;20213;-72
2022/05/22 08:07:07;;;;;;;4.32;2.00;;;22.10;99.90;;;;;;4990705;28;20217;-71
2022/05/22 08:09:34;;;;;;;4.28;2.10;;;22.20;99.90;;;;;;4992366;28;20193;-71
2022/05/22 08:12:01;;;;;;;3.83;1.90;;;22.30;99.90;;;;;;4986400;28;20565;-73
2022/05/22 08:14:28;;;;;;;3.08;2.20;;;22.50;99.90;;;;;;4982349;28;20573;-71
2022/05/22 08:17:00;;;;;;;2.60;1.92;;;22.70;99.90;;;;;;4982950;28;20212;-71
2022/05/22 08:19:27;;;;;;;4.15;1.80;;;22.90;99.90;;;;;;4984613;28;20197;-71
2022/05/22 08:21:53;;;;;;;3.45;2.00;;;23.00;99.90;;;;;;4988639;28;20581;-72
2022/05/22 08:24:20;;;;;;;2.33;1.77;;;23.00;99.90;;;;;;4986221;28;20711;-71
2022/05/22 08:26:47;;;;;;;3.03;1.40;;;23.10;99.90;;;;;;4985785;28;20212;-71
2022/05/22 08:29:14;;;;;;;4.32;1.70;;;22.90;99.90;;;;;;4984454;28;20221;-72
2022/05/22 08:31:41;;;;;;;3.13;1.60;;;22.80;99.90;;;;;;4987564;28;20688;-71
2022/05/22 08:34:07;;;;;;;3.55;1.50;;;22.60;99.90;;;;;;4988428;28;20196;-73
2022/05/22 08:36:34;;;;;;;3.55;1.75;;;22.40;99.90;;;;;;4982835;28;20224;-70
2022/05/22 08:39:01;;;;;;;4.13;1.90;;;22.30;99.90;;;;;;4985815;28;20683;-71
2022/05/22 08:41:32;;;;;;;3.50;2.03;;;22.20;99.90;;;;;;4989575;28;20193;-74
2022/05/22 08:44:24;;;;;;;4.63;1.50;;;22.00;99.90;;;;;;4985896;28;20207;-71
2022/05/22 08:47:02;;;;;;;2.67;1.60;;;22.00;99.90;;;;;;4981290;28;20255;-71
2022/05/22 08:49:49;;;;;;;3.75;1.42;;;22.10;99.90;;;;;;4990266;28;20216;-75
2022/05/22 08:52:51;;;;;;;2.97;1.50;;;21.90;99.90;;;;;;4981882;28;20202;-70
2022/05/22 09:01:14;;;;;;;3.20;1.83;;;22.30;99.90;;;;;;4976654;28;20198;-72
2022/05/22 09:04:11;;;;;;;4.20;1.95;;;22.60;99.90;;;;;;4980422;28;20693;-73
2022/05/22 09:06:55;;;;;;;4.82;2.13;;;23.00;99.90;;;;;;4984795;28;20274;-74
2022/05/22 09:09:23;;;;;;;3.17;1.92;;;23.10;99.90;;;;;;4978594;28;20218;-72
2022/05/22 09:11:58;;;;;;;3.03;1.75;;;23.10;99.90;;;;;;4982151;28;20197;-70
2022/05/22 09:14:42;;;;;;;4.95;2.00;;;23.10;99.90;;;;;;4978049;28;20196;-73
2022/05/22 09:17:17;;;;;;;5.07;1.98;;;23.00;99.90;;;;;;4983021;28;20228;-73
2022/05/22 09:19:56;;;;;;;4.07;1.50;;;23.10;99.90;;;;;;4982504;28;20228;-73
2022/05/22 09:22:51;;;;;;;2.97;1.63;;;23.10;99.90;;;;;;4982387;28;20193;-75
2022/05/22 09:25:44;;;;;;;5.18;1.60;;;23.40;99.90;;;;;;4977167;28;20202;-70
2022/05/22 09:28:32;;;;;;;7.72;1.90;;;23.40;99.90;;;;;;4986677;28;20216;-76
2022/05/22 09:31:14;;;;;;;5.35;2.03;;;23.40;99.90;;;;;;4988045;28;20192;-73
2022/05/22 09:34:07;;;;;;;5.30;1.88;;;23.40;99.90;;;;;;4987556;28;20743;-73
2022/05/22 09:36:39;;;;;;;5.60;1.83;;;23.60;99.90;;;;;;4983321;28;20589;-72
2022/05/22 09:39:45;;;;;;;3.72;1.45;;;24.00;99.90;;;;;;4977511;28;20228;-73
2022/05/22 09:42:46;;;;;;;3.38;2.50;;;24.30;99.90;;;;;;4988535;28;20208;-72
2022/05/22 09:45:37;;;;;;;4.57;2.20;;;24.50;99.90;;;;;;4989449;28;20287;-73
2022/05/22 09:48:39;;;;;;;5.55;1.98;;;24.60;99.90;;;;;;4988392;28;20224;-74
2022/05/22 09:51:29;;;;;;;2.97;1.90;;;24.00;99.90;;;;;;4989721;28;20726;-72
2022/05/22 09:54:11;;;;;;;3.67;2.30;;;24.30;99.90;;;;;;4990741;28;20202;-73
2022/05/22 09:57:16;;;;;;;5.82;2.33;;;24.70;99.90;;;;;;4990649;28;20219;-71
2022/05/22 10:00:06;;;;;;;4.10;1.90;;;25.10;99.90;;;;;;4991522;28;20723;-73
2022/05/22 10:03:03;;;;;;;3.20;1.73;;;25.30;99.90;;;;;;4984024;28;20197;-74
2022/05/22 10:05:32;;;;;;;2.67;1.55;;;25.40;99.90;;;;;;4988987;28;20251;-72
2022/05/22 10:08:26;;;;;;;3.25;1.73;;;25.40;99.90;;;;;;4990197;28;20216;-71
2022/05/22 10:11:04;;;;;;;3.78;1.75;;;25.50;99.90;;;;;;4983678;28;20194;-73
2022/05/22 10:13:50;;;;;;;5.35;1.73;;;25.10;99.90;;;;;;4990997;28;20208;-72
2022/05/22 10:16:32;;;;;;;4.30;1.60;;;25.20;99.90;;;;;;4990085;28;20221;-71
2022/05/22 10:19:18;;;;;;;3.95;1.92;;;25.20;99.90;;;;;;4993119;28;20209;-74
2022/05/22 10:22:03;;;;;;;3.03;1.77;;;25.20;99.90;;;;;;4987548;28;20211;-72
2022/05/22 10:24:41;;;;;;;3.28;1.55;;;24.80;99.90;;;;;;4987791;28;20204;-75
2022/05/22 10:27:29;;;;;;;2.80;1.60;;;24.50;99.90;;;;;;4993198;28;20275;-71
2022/05/22 10:30:08;;;;;;;2.03;1.63;;;24.70;99.90;;;;;;4985165;28;20220;-71
2022/05/22 10:32:45;;;;;;;2.15;1.42;;;24.40;99.90;;;;;;4985368;28;20224;-71
2022/05/22 10:35:18;;;;;;;3.08;1.30;;;24.10;99.90;;;;;;4988168;28;20204;-71
2022/05/22 10:37:51;;;;;;;3.85;1.52;;;24.20;99.90;;;;;;4986424;28;20220;-72
2022/05/22 10:40:21;;;;;;;6.47;2.08;;;24.40;99.90;;;;;;4994367;28;20645;-70
2022/05/22 10:42:55;;;;;;;3.88;1.83;;;24.80;99.90;;;;;;4989553;28;20199;-71
2022/05/22 10:45:21;;;;;;;2.22;1.40;;;24.90;99.90;;;;;;4991339;28;20735;-73
2022/05/22 10:47:49;;;;;;;2.42;1.40;;;25.10;99.90;;;;;;4992894;28;20609;-70
2022/05/22 10:50:23;;;;;;;2.85;1.65;;;25.40;99.90;;;;;;4987466;28;20205;-71
2022/05/22 10:52:50;;;;;;;4.90;2.35;;;25.20;99.90;;;;;;4989555;28;20209;-71
2022/05/22 10:55:43;;;;;;;3.13;1.50;;;25.00;99.90;;;;;;4990688;28;20197;-67
2022/05/22 10:58:25;;;;;;;3.80;1.80;;;24.60;99.90;;;;;;4988450;28;20193;-73
2022/05/22 11:00:57;;;;;;;3.28;1.40;;;24.50;99.90;;;;;;4982880;28;20198;-72
2022/05/22 11:03:27;;;;;;;3.10;1.45;;;24.70;99.90;;;;;;4976567;28;20212;-72
2022/05/22 11:05:54;;;;;;;2.70;1.60;;;24.90;99.90;;;;;;4988722;28;20672;-71
2022/05/22 11:08:33;;;;;;;3.22;1.50;;;25.20;99.90;;;;;;4990621;28;20217;-70
2022/05/22 11:11:12;;;;;;;5.18;2.10;;;25.00;99.90;;;;;;4980676;28;20197;-72
2022/05/22 11:13:40;;;;;;;2.33;1.80;;;25.10;99.90;;;;;;4989386;28;20197;-70
2022/05/22 11:16:18;;;;;;;2.40;1.52;;;25.50;99.90;;;;;;4981364;28;20269;-72
2022/05/22 11:18:46;;;;;;;2.95;2.00;;;25.90;99.90;;;;;;4981695;28;20282;-70
2022/05/22 11:21:29;;;;;;;3.03;1.73;;;25.80;99.90;;;;;;4987905;28;20267;-70
2022/05/22 11:24:20;;;;;;;5.47;1.60;;;26.00;99.90;;;;;;4990077;28;20205;-70
2022/05/22 11:27:06;;;;;;;1.63;1.52;;;26.10;99.90;;;;;;4977108;28;20308;-69
2022/05/22 11:30:06;;;;;;;4.57;2.50;;;25.40;99.90;;;;;;4984397;28;20224;-71
2022/05/22 11:33:02;;;;;;;3.65;1.60;;;25.50;99.90;;;;;;4982295;28;20193;-73
2022/05/22 11:36:01;;;;;;;3.95;1.50;;;25.50;99.90;;;;;;4980672;28;20657;-71
2022/05/22 11:38:51;;;;;;;2.22;1.50;;;25.70;99.90;;;;;;4988484;28;20691;-70
2022/05/22 11:41:43;;;;;;;2.63;1.60;;;25.90;99.90;;;;;;4988408;28;20193;-68
2022/05/22 11:44:40;;;;;;;2.05;1.55;;;25.90;99.90;;;;;;4988948;28;20201;-71
2022/05/22 11:47:44;;;;;;;3.10;1.60;;;26.10;99.90;;;;;;4983699;28;20284;-70
2022/05/22 11:50:38;;;;;;;3.05;1.65;;;26.30;99.90;;;;;;4987861;28;20235;-72
2022/05/22 11:53:14;;;;;;;2.67;1.20;;;26.70;99.90;;;;;;4984668;28;20670;-71
2022/05/22 11:55:47;;;;;;;3.88;1.80;;;26.90;99.90;;;;;;4989334;28;20696;-76
2022/05/22 11:58:29;;;;;;;3.50;1.48;;;27.20;99.90;;;;;;4983877;28;20198;-71
2022/05/22 12:01:24;;;;;;;4.00;1.50;;;27.30;99.40;;;;;;4982731;28;20204;-72
2022/05/22 12:04:15;;;;;;;3.15;1.70;;;27.20;98.30;;;;;;4998006;28;20700;-73
2022/05/22 12:06:54;;;;;;;3.40;1.70;;;27.00;99.70;;;;;;4981419;28;20216;-71
2022/05/22 12:09:51;;;;;;;3.28;1.58;;;27.00;99.90;;;;;;4987412;28;20759;-71
2022/05/22 12:12:42;;;;;;;3.45;1.92;;;27.00;99.00;;;;;;4987922;28;20193;-71
2022/05/22 12:15:31;;;;;;;2.35;1.52;;;26.90;98.80;;;;;;4986465;28;20548;-74
2022/05/22 12:18:16;;;;;;;5.38;1.67;;;26.50;99.60;;;;;;4987473;28;20208;-71
2022/05/22 12:21:01;;;;;;;3.50;1.80;;;26.20;99.20;;;;;;4985859;28;20201;-72
2022/05/22 12:23:37;;;;;;;6.18;1.90;;;26.30;99.20;;;;;;4980484;28;20197;-71
2022/05/22 12:26:07;;;;;;;2.95;1.60;;;26.20;98.90;;;;;;4985807;28;20208;-74
2022/05/22 12:28:39;;;;;;;3.50;1.85;;;26.10;99.60;;;;;;4987737;28;20690;-74
2022/05/22 12:31:11;;;;;;;3.22;1.80;;;25.90;99.90;;;;;;4988953;28;20567;-76
2022/05/22 12:33:38;;;;;;;1.75;1.60;;;26.00;99.90;;;;;;4990675;28;20240;-75
2022/05/22 12:36:07;;;;;;;3.83;1.92;;;26.10;99.90;;;;;;4986535;28;20240;-75
2022/05/22 12:38:42;;;;;;;1.77;1.50;;;26.10;99.90;;;;;;4988540;28;20208;-78
2022/05/22 12:41:25;;;;;;;3.45;1.60;;;25.80;99.90;;;;;;4977795;28;20227;-76
2022/05/22 12:43:55;;;;;;;2.85;1.60;;;26.10;99.90;;;;;;4979451;28;20193;-73
2022/05/22 12:46:24;;;;;;;3.22;1.63;;;26.00;99.90;;;;;;4986143;28;20217;-72
2022/05/22 12:49:03;;;;;;;2.25;1.67;;;26.10;99.90;;;;;;4992681;28;20284;-74
2022/05/22 12:51:36;;;;;;;3.53;1.50;;;26.10;99.90;;;;;;4988771;28;20278;-73
2022/05/22 12:54:21;;;;;;;1.90;1.40;;;26.20;99.90;;;;;;4988076;28;20335;-73
2022/05/22 12:56:49;;;;;;;4.15;1.70;;;25.90;99.90;;;;;;4983098;28;20236;-73
2022/05/22 12:59:24;;;;;;;1.40;1.15;;;26.00;99.90;;;;;;4990702;28;20699;-73
2022/05/22 13:01:59;;;;;;;5.47;1.70;;;26.10;99.90;;;;;;4986489;28;20199;-72
2022/05/22 13:04:30;;;;;;;2.05;1.42;;;26.10;99.90;;;;;;4979987;28;20207;-74
2022/05/22 13:07:09;;;;;;;2.55;1.40;;;26.10;99.90;;;;;;4988603;28;20299;-74
2022/05/22 13:09:46;;;;;;;2.70;1.40;;;26.30;99.90;;;;;;4976065;28;20247;-71
2022/05/22 13:12:13;;;;;;;3.83;1.60;;;26.30;99.90;;;;;;4983650;28;20200;-73
2022/05/22 13:15:06;;;;;;;4.22;1.50;;;26.20;99.90;;;;;;4979080;28;20189;-78
2022/05/22 13:17:40;;;;;;;6.03;1.92;;;25.90;99.90;;;;;;4987634;28;20303;-74
2022/05/22 13:20:21;;;;;;;2.55;1.45;;;25.80;99.90;;;;;;4986172;28;20669;-74
2022/05/22 13:22:59;;;;;;;3.85;1.70;;;25.70;99.90;;;;;;4985264;28;20197;-76
2022/05/22 13:25:29;;;;;;;2.58;1.60;;;25.50;99.90;;;;;;4979296;28;20219;-76
2022/05/22 13:27:56;;;;;;;5.38;1.75;;;25.40;99.90;;;;;;4984864;28;20201;-75
2022/05/22 13:30:27;;;;;;;3.88;1.70;;;25.20;99.90;;;;;;4983503;28;20567;-74